Paganini — V2CL8 — position and weather

sailwx.info

Track history (hours):
 
Tides and Currents Weather Stations Pressure Air Temp Water Temp Dewpoint Dewpoint Depression Visibility Wind Speed Wind Dir Waves Ship Positions

Paganini

Last reported at 2014-Sep-01 15:19 UTC. Time now 2014-Sep-01 18:45 UTC.
Position N 49°28' E 000°40'.

Length 90 m; draft 5.6 m.

Type: Ship. MMSI: 305040000.

Date/timePositionNaut miles runAvg speedWind from/ knotsBaromVisibWave heightAir tempDewpointWater temp
2014-Sep-01 15:19N 49°28' E 000°40'7 8.6
2014-Sep-01 14:27N 49°29' E 000°29'1010.9
2014-Sep-01 13:33N 49°26' E 000°14'10 9.9
2014-Sep-01 12:33N 49°28' W 000°00'3 3.3
2014-Sep-01 11:33N 49°28' W 000°06'0 0.0
2014-Sep-01 10:33N 49°28' W 000°06'0 0.0
2014-Sep-01 09:33N 49°28' W 000°06'0 0.1
2014-Sep-01 08:33N 49°28' W 000°06'3 3.0
2014-Sep-01 07:33N 49°30' W 000°10'8 7.8
2014-Sep-01 06:33N 49°33' W 000°21'7 7.5
2014-Sep-01 05:33N 49°36' W 000°31'122 8.7
2014-Aug-31 15:33N 49°30' W 003°39'8 7.6
2014-Aug-31 14:33N 49°26' W 003°49'8 7.6
2014-Aug-31 13:33N 49°22' W 003°59'16 7.9
2014-Aug-31 11:33N 49°14' W 004°20'17 8.7
2014-Aug-31 09:33N 49°05' W 004°43'30 9.8
2014-Aug-31 06:33N 48°51' W 005°22'1010.1
2014-Aug-31 05:33N 48°45' W 005°35'27 9.0
2014-Aug-31 02:33N 48°21' W 005°52'16 7.9
2014-Aug-31 00:33N 48°05' W 005°53'8 7.5
2014-Aug-30 23:33N 47°58' W 005°53'7 7.5
2014-Aug-30 22:33N 47°50' W 005°53'  
Track history (hours):
 
Tides and Currents Weather Stations Pressure Air Temp Water Temp Dewpoint Dewpoint Depression Visibility Wind Speed Wind Dir Waves Ship Positions

Paganini

Last reported at 2014-Sep-01 15:19 UTC. Time now 2014-Sep-01 18:45 UTC.
Position N 49°28' E 000°40'.

Length 90 m; draft 5.6 m.

Type: Ship. MMSI: 305040000.

Date/timePositionNaut miles runAvg speedWind from/ knotsBaromVisibWave heightAir tempDewpointWater temp
2014-Sep-01 15:19N 49°28' E 000°40'7 8.6
2014-Sep-01 14:27N 49°29' E 000°29'1010.9
2014-Sep-01 13:33N 49°26' E 000°14'10 9.9
2014-Sep-01 12:33N 49°28' W 000°00'3 3.3
2014-Sep-01 11:33N 49°28' W 000°06'0 0.0
2014-Sep-01 10:33N 49°28' W 000°06'0 0.0
2014-Sep-01 09:33N 49°28' W 000°06'0 0.1
2014-Sep-01 08:33N 49°28' W 000°06'3 3.0
2014-Sep-01 07:33N 49°30' W 000°10'8 7.8
2014-Sep-01 06:33N 49°33' W 000°21'7 7.5
2014-Sep-01 05:33N 49°36' W 000°31'122 8.7
2014-Aug-31 15:33N 49°30' W 003°39'8 7.6
2014-Aug-31 14:33N 49°26' W 003°49'8 7.6
2014-Aug-31 13:33N 49°22' W 003°59'16 7.9
2014-Aug-31 11:33N 49°14' W 004°20'17 8.7
2014-Aug-31 09:33N 49°05' W 004°43'30 9.8
2014-Aug-31 06:33N 48°51' W 005°22'1010.1
2014-Aug-31 05:33N 48°45' W 005°35'27 9.0
2014-Aug-31 02:33N 48°21' W 005°52'16 7.9
2014-Aug-31 00:33N 48°05' W 005°53'8 7.5
2014-Aug-30 23:33N 47°58' W 005°53'7 7.5
2014-Aug-30 22:33N 47°50' W 005°53'  

Dump ship's entire track history